sensor_id;sensor_type;location;lat;lon;timestamp;P1;durP1;ratioP1;P2;durP2;ratioP2
31618;SDS011;18230;51.502;7.108;2024-03-25T00:00:55;33.85;;;6.05;;
31618;SDS011;18230;51.502;7.108;2024-03-25T00:05:56;34.92;;;6.65;;
31618;SDS011;18230;51.502;7.108;2024-03-25T00:10:57;37.92;;;5.57;;
31618;SDS011;18230;51.502;7.108;2024-03-25T00:15:58;35.70;;;6.10;;
31618;SDS011;18230;51.502;7.108;2024-03-25T00:20:58;33.80;;;6.82;;
31618;SDS011;18230;51.502;7.108;2024-03-25T00:25:59;31.15;;;7.05;;
31618;SDS011;18230;51.502;7.108;2024-03-25T00:30:59;49.47;;;10.15;;
31618;SDS011;18230;51.502;7.108;2024-03-25T00:36:00;52.17;;;15.40;;
31618;SDS011;18230;51.502;7.108;2024-03-25T00:41:01;53.15;;;16.67;;
31618;SDS011;18230;51.502;7.108;2024-03-25T00:46:02;63.60;;;17.05;;
31618;SDS011;18230;51.502;7.108;2024-03-25T00:51:02;57.83;;;18.17;;
31618;SDS011;18230;51.502;7.108;2024-03-25T00:56:03;54.05;;;18.10;;
31618;SDS011;18230;51.502;7.108;2024-03-25T01:01:04;61.47;;;17.75;;
31618;SDS011;18230;51.502;7.108;2024-03-25T01:06:04;60.95;;;20.35;;
31618;SDS011;18230;51.502;7.108;2024-03-25T01:11:05;71.45;;;23.02;;
31618;SDS011;18230;51.502;7.108;2024-03-25T01:16:06;69.53;;;24.35;;
31618;SDS011;18230;51.502;7.108;2024-03-25T01:21:07;65.25;;;25.17;;
31618;SDS011;18230;51.502;7.108;2024-03-25T01:26:07;69.35;;;24.30;;
31618;SDS011;18230;51.502;7.108;2024-03-25T01:31:08;71.63;;;23.75;;
31618;SDS011;18230;51.502;7.108;2024-03-25T01:36:09;68.40;;;20.30;;
31618;SDS011;18230;51.502;7.108;2024-03-25T01:41:11;62.65;;;19.23;;
31618;SDS011;18230;51.502;7.108;2024-03-25T01:46:15;53.03;;;16.05;;
31618;SDS011;18230;51.502;7.108;2024-03-25T01:51:17;40.35;;;12.35;;
31618;SDS011;18230;51.502;7.108;2024-03-25T01:56:20;52.08;;;11.80;;
31618;SDS011;18230;51.502;7.108;2024-03-25T02:01:23;52.00;;;10.50;;
31618;SDS011;18230;51.502;7.108;2024-03-25T02:06:24;46.33;;;8.10;;
31618;SDS011;18230;51.502;7.108;2024-03-25T02:11:28;44.47;;;8.38;;
31618;SDS011;18230;51.502;7.108;2024-03-25T02:16:29;38.20;;;7.47;;
31618;SDS011;18230;51.502;7.108;2024-03-25T02:21:30;38.08;;;6.72;;
31618;SDS011;18230;51.502;7.108;2024-03-25T02:26:30;43.50;;;7.72;;
31618;SDS011;18230;51.502;7.108;2024-03-25T02:31:31;36.15;;;6.28;;
31618;SDS011;18230;51.502;7.108;2024-03-25T02:36:32;39.38;;;6.10;;
31618;SDS011;18230;51.502;7.108;2024-03-25T02:41:33;39.65;;;7.05;;
31618;SDS011;18230;51.502;7.108;2024-03-25T02:46:36;40.38;;;6.97;;
31618;SDS011;18230;51.502;7.108;2024-03-25T02:51:40;37.10;;;6.60;;
31618;SDS011;18230;51.502;7.108;2024-03-25T02:56:40;28.33;;;6.07;;
31618;SDS011;18230;51.502;7.108;2024-03-25T03:01:41;40.30;;;6.60;;
31618;SDS011;18230;51.502;7.108;2024-03-25T03:06:41;37.45;;;6.20;;
31618;SDS011;18230;51.502;7.108;2024-03-25T03:11:42;39.50;;;6.70;;
31618;SDS011;18230;51.502;7.108;2024-03-25T03:16:43;32.92;;;5.65;;
31618;SDS011;18230;51.502;7.108;2024-03-25T03:21:43;41.92;;;5.07;;
31618;SDS011;18230;51.502;7.108;2024-03-25T03:26:44;45.03;;;6.03;;
31618;SDS011;18230;51.502;7.108;2024-03-25T03:31:45;43.30;;;6.72;;
31618;SDS011;18230;51.502;7.108;2024-03-25T03:36:45;32.78;;;6.47;;
31618;SDS011;18230;51.502;7.108;2024-03-25T03:41:46;34.17;;;7.07;;
31618;SDS011;18230;51.502;7.108;2024-03-25T03:46:47;41.92;;;7.22;;
31618;SDS011;18230;51.502;7.108;2024-03-25T03:51:47;36.13;;;6.97;;
31618;SDS011;18230;51.502;7.108;2024-03-25T03:56:48;38.38;;;8.15;;
31618;SDS011;18230;51.502;7.108;2024-03-25T04:01:49;36.35;;;7.28;;
31618;SDS011;18230;51.502;7.108;2024-03-25T04:06:49;33.35;;;7.03;;
31618;SDS011;18230;51.502;7.108;2024-03-25T04:11:50;36.25;;;6.95;;
31618;SDS011;18230;51.502;7.108;2024-03-25T04:16:50;35.15;;;7.03;;
31618;SDS011;18230;51.502;7.108;2024-03-25T04:21:53;43.67;;;8.00;;
31618;SDS011;18230;51.502;7.108;2024-03-25T04:26:54;32.60;;;8.43;;
31618;SDS011;18230;51.502;7.108;2024-03-25T04:31:54;34.33;;;8.27;;
31618;SDS011;18230;51.502;7.108;2024-03-25T04:36:55;39.83;;;7.95;;
31618;SDS011;18230;51.502;7.108;2024-03-25T04:41:56;48.80;;;9.18;;
31618;SDS011;18230;51.502;7.108;2024-03-25T04:46:57;37.70;;;7.70;;
31618;SDS011;18230;51.502;7.108;2024-03-25T04:51:57;46.75;;;7.95;;
31618;SDS011;18230;51.502;7.108;2024-03-25T04:56:58;41.85;;;9.00;;
31618;SDS011;18230;51.502;7.108;2024-03-25T05:01:59;44.08;;;8.98;;
31618;SDS011;18230;51.502;7.108;2024-03-25T05:06:59;34.42;;;8.32;;
31618;SDS011;18230;51.502;7.108;2024-03-25T05:12:00;36.38;;;9.25;;
31618;SDS011;18230;51.502;7.108;2024-03-25T05:17:01;38.83;;;9.40;;
31618;SDS011;18230;51.502;7.108;2024-03-25T05:22:03;34.20;;;8.60;;
31618;SDS011;18230;51.502;7.108;2024-03-25T05:27:04;49.75;;;9.23;;
31618;SDS011;18230;51.502;7.108;2024-03-25T05:32:05;33.97;;;9.65;;
31618;SDS011;18230;51.502;7.108;2024-03-25T05:37:06;48.08;;;10.25;;
31618;SDS011;18230;51.502;7.108;2024-03-25T05:42:06;53.05;;;8.93;;
31618;SDS011;18230;51.502;7.108;2024-03-25T05:47:08;46.25;;;9.38;;
31618;SDS011;18230;51.502;7.108;2024-03-25T05:52:09;42.50;;;8.10;;
31618;SDS011;18230;51.502;7.108;2024-03-25T05:57:09;38.47;;;9.05;;
31618;SDS011;18230;51.502;7.108;2024-03-25T06:02:10;42.00;;;7.88;;
31618;SDS011;18230;51.502;7.108;2024-03-25T06:07:11;52.35;;;10.13;;
31618;SDS011;18230;51.502;7.108;2024-03-25T06:12:11;28.23;;;8.23;;
31618;SDS011;18230;51.502;7.108;2024-03-25T06:17:13;35.15;;;8.45;;
31618;SDS011;18230;51.502;7.108;2024-03-25T06:22:13;35.95;;;8.82;;
31618;SDS011;18230;51.502;7.108;2024-03-25T06:27:14;34.65;;;9.30;;
31618;SDS011;18230;51.502;7.108;2024-03-25T06:32:14;31.80;;;8.43;;
31618;SDS011;18230;51.502;7.108;2024-03-25T06:37:34;34.67;;;8.88;;
31618;SDS011;18230;51.502;7.108;2024-03-25T06:42:34;32.17;;;7.97;;
31618;SDS011;18230;51.502;7.108;2024-03-25T06:47:35;37.72;;;8.68;;
31618;SDS011;18230;51.502;7.108;2024-03-25T06:52:35;38.25;;;8.85;;
31618;SDS011;18230;51.502;7.108;2024-03-25T06:57:36;42.22;;;9.68;;
31618;SDS011;18230;51.502;7.108;2024-03-25T07:02:37;31.50;;;8.38;;
31618;SDS011;18230;51.502;7.108;2024-03-25T07:07:37;26.85;;;7.75;;
31618;SDS011;18230;51.502;7.108;2024-03-25T07:12:38;31.50;;;8.75;;
31618;SDS011;18230;51.502;7.108;2024-03-25T07:17:38;34.28;;;9.07;;
31618;SDS011;18230;51.502;7.108;2024-03-25T07:22:39;37.85;;;10.13;;
31618;SDS011;18230;51.502;7.108;2024-03-25T07:27:40;37.70;;;8.55;;
31618;SDS011;18230;51.502;7.108;2024-03-25T07:32:41;33.70;;;8.38;;
31618;SDS011;18230;51.502;7.108;2024-03-25T07:37:41;38.60;;;8.20;;
31618;SDS011;18230;51.502;7.108;2024-03-25T07:42:42;34.00;;;8.45;;
31618;SDS011;18230;51.502;7.108;2024-03-25T07:47:43;31.15;;;7.65;;
31618;SDS011;18230;51.502;7.108;2024-03-25T07:52:44;32.28;;;8.38;;
31618;SDS011;18230;51.502;7.108;2024-03-25T07:57:44;34.50;;;9.50;;
31618;SDS011;18230;51.502;7.108;2024-03-25T08:02:45;32.05;;;7.60;;
31618;SDS011;18230;51.502;7.108;2024-03-25T08:07:45;28.67;;;7.35;;
31618;SDS011;18230;51.502;7.108;2024-03-25T08:12:46;40.95;;;7.90;;
31618;SDS011;18230;51.502;7.108;2024-03-25T08:17:46;31.48;;;6.65;;
31618;SDS011;18230;51.502;7.108;2024-03-25T08:22:48;28.02;;;6.32;;
31618;SDS011;18230;51.502;7.108;2024-03-25T08:27:49;28.52;;;6.50;;
31618;SDS011;18230;51.502;7.108;2024-03-25T08:32:49;25.83;;;6.38;;
31618;SDS011;18230;51.502;7.108;2024-03-25T08:37:50;26.75;;;5.65;;
31618;SDS011;18230;51.502;7.108;2024-03-25T08:42:51;36.55;;;7.82;;
31618;SDS011;18230;51.502;7.108;2024-03-25T08:47:51;30.30;;;6.00;;
31618;SDS011;18230;51.502;7.108;2024-03-25T08:52:52;19.17;;;4.90;;
31618;SDS011;18230;51.502;7.108;2024-03-25T08:57:52;21.08;;;3.15;;
31618;SDS011;18230;51.502;7.108;2024-03-25T09:02:53;16.40;;;2.90;;
31618;SDS011;18230;51.502;7.108;2024-03-25T09:07:54;15.13;;;2.97;;
31618;SDS011;18230;51.502;7.108;2024-03-25T09:12:55;17.63;;;3.40;;
31618;SDS011;18230;51.502;7.108;2024-03-25T09:17:55;15.13;;;2.60;;
31618;SDS011;18230;51.502;7.108;2024-03-25T09:22:56;21.48;;;3.30;;
31618;SDS011;18230;51.502;7.108;2024-03-25T09:27:57;17.45;;;3.10;;
31618;SDS011;18230;51.502;7.108;2024-03-25T09:32:57;21.13;;;3.28;;
31618;SDS011;18230;51.502;7.108;2024-03-25T09:37:58;20.98;;;3.65;;
31618;SDS011;18230;51.502;7.108;2024-03-25T09:42:59;16.30;;;3.85;;
31618;SDS011;18230;51.502;7.108;2024-03-25T09:48:02;16.45;;;3.45;;
31618;SDS011;18230;51.502;7.108;2024-03-25T09:53:05;21.70;;;3.47;;
31618;SDS011;18230;51.502;7.108;2024-03-25T09:58:05;19.13;;;3.88;;
31618;SDS011;18230;51.502;7.108;2024-03-25T10:03:07;14.32;;;3.20;;
31618;SDS011;18230;51.502;7.108;2024-03-25T10:08:08;16.85;;;3.50;;
31618;SDS011;18230;51.502;7.108;2024-03-25T10:13:09;20.08;;;3.60;;
31618;SDS011;18230;51.502;7.108;2024-03-25T10:18:13;15.50;;;3.42;;
31618;SDS011;18230;51.502;7.108;2024-03-25T10:23:13;15.18;;;3.88;;
31618;SDS011;18230;51.502;7.108;2024-03-25T10:28:14;13.18;;;4.00;;
31618;SDS011;18230;51.502;7.108;2024-03-25T10:33:15;12.48;;;2.92;;
31618;SDS011;18230;51.502;7.108;2024-03-25T10:38:15;11.57;;;2.83;;
31618;SDS011;18230;51.502;7.108;2024-03-25T10:43:18;17.02;;;2.90;;
31618;SDS011;18230;51.502;7.108;2024-03-25T10:48:26;17.60;;;2.88;;
31618;SDS011;18230;51.502;7.108;2024-03-25T10:53:29;13.13;;;2.88;;
31618;SDS011;18230;51.502;7.108;2024-03-25T10:58:30;17.77;;;3.58;;
31618;SDS011;18230;51.502;7.108;2024-03-25T11:03:32;20.02;;;3.20;;
31618;SDS011;18230;51.502;7.108;2024-03-25T11:08:34;15.90;;;3.92;;
31618;SDS011;18230;51.502;7.108;2024-03-25T11:13:35;10.40;;;2.95;;
31618;SDS011;18230;51.502;7.108;2024-03-25T11:18:38;15.20;;;3.40;;
31618;SDS011;18230;51.502;7.108;2024-03-25T11:23:41;14.10;;;3.50;;
31618;SDS011;18230;51.502;7.108;2024-03-25T11:28:42;12.98;;;2.88;;
31618;SDS011;18230;51.502;7.108;2024-03-25T11:33:42;25.75;;;3.67;;
31618;SDS011;18230;51.502;7.108;2024-03-25T11:38:43;19.48;;;3.67;;
31618;SDS011;18230;51.502;7.108;2024-03-25T11:43:44;18.00;;;4.03;;
31618;SDS011;18230;51.502;7.108;2024-03-25T11:48:45;16.35;;;3.10;;
31618;SDS011;18230;51.502;7.108;2024-03-25T11:53:46;17.00;;;3.20;;
31618;SDS011;18230;51.502;7.108;2024-03-25T11:58:47;12.20;;;3.55;;
31618;SDS011;18230;51.502;7.108;2024-03-25T12:03:47;11.30;;;3.17;;
31618;SDS011;18230;51.502;7.108;2024-03-25T12:08:48;9.65;;;2.10;;
31618;SDS011;18230;51.502;7.108;2024-03-25T12:14:07;13.63;;;2.78;;
31618;SDS011;18230;51.502;7.108;2024-03-25T12:19:08;19.42;;;3.13;;
31618;SDS011;18230;51.502;7.108;2024-03-25T12:24:08;14.05;;;2.85;;
31618;SDS011;18230;51.502;7.108;2024-03-25T12:29:09;14.55;;;2.80;;
31618;SDS011;18230;51.502;7.108;2024-03-25T12:34:12;11.38;;;2.85;;
31618;SDS011;18230;51.502;7.108;2024-03-25T12:39:19;10.68;;;2.53;;
31618;SDS011;18230;51.502;7.108;2024-03-25T12:44:19;12.43;;;2.60;;
31618;SDS011;18230;51.502;7.108;2024-03-25T12:49:21;15.38;;;2.65;;
31618;SDS011;18230;51.502;7.108;2024-03-25T12:54:21;7.45;;;2.03;;
31618;SDS011;18230;51.502;7.108;2024-03-25T12:59:22;15.73;;;2.30;;
31618;SDS011;18230;51.502;7.108;2024-03-25T13:04:22;17.83;;;2.50;;
31618;SDS011;18230;51.502;7.108;2024-03-25T13:09:23;16.25;;;2.30;;
31618;SDS011;18230;51.502;7.108;2024-03-25T13:14:24;11.57;;;2.25;;
31618;SDS011;18230;51.502;7.108;2024-03-25T13:19:25;12.25;;;2.13;;
31618;SDS011;18230;51.502;7.108;2024-03-25T13:24:28;8.68;;;1.77;;
31618;SDS011;18230;51.502;7.108;2024-03-25T13:29:28;6.25;;;1.80;;
31618;SDS011;18230;51.502;7.108;2024-03-25T13:34:29;8.93;;;1.98;;
31618;SDS011;18230;51.502;7.108;2024-03-25T13:39:30;9.00;;;1.88;;
31618;SDS011;18230;51.502;7.108;2024-03-25T13:44:30;12.85;;;2.05;;
31618;SDS011;18230;51.502;7.108;2024-03-25T13:49:35;11.13;;;2.50;;
31618;SDS011;18230;51.502;7.108;2024-03-25T13:54:36;7.40;;;1.65;;
31618;SDS011;18230;51.502;7.108;2024-03-25T13:59:37;5.25;;;1.55;;
31618;SDS011;18230;51.502;7.108;2024-03-25T14:04:37;11.98;;;1.88;;
31618;SDS011;18230;51.502;7.108;2024-03-25T14:09:38;10.25;;;1.85;;
31618;SDS011;18230;51.502;7.108;2024-03-25T14:14:38;11.23;;;2.10;;
31618;SDS011;18230;51.502;7.108;2024-03-25T14:19:39;8.13;;;1.80;;
31618;SDS011;18230;51.502;7.108;2024-03-25T14:24:39;8.55;;;1.92;;
31618;SDS011;18230;51.502;7.108;2024-03-25T14:29:40;7.03;;;1.70;;
31618;SDS011;18230;51.502;7.108;2024-03-25T14:34:41;5.50;;;1.23;;
31618;SDS011;18230;51.502;7.108;2024-03-25T14:39:42;12.13;;;2.08;;
31618;SDS011;18230;51.502;7.108;2024-03-25T14:44:42;6.93;;;1.60;;
31618;SDS011;18230;51.502;7.108;2024-03-25T14:49:43;13.73;;;2.30;;
31618;SDS011;18230;51.502;7.108;2024-03-25T14:54:44;6.93;;;1.90;;
31618;SDS011;18230;51.502;7.108;2024-03-25T14:59:44;11.32;;;2.03;;
31618;SDS011;18230;51.502;7.108;2024-03-25T15:04:45;8.90;;;2.40;;
31618;SDS011;18230;51.502;7.108;2024-03-25T15:09:45;8.60;;;2.15;;
31618;SDS011;18230;51.502;7.108;2024-03-25T15:14:46;8.35;;;1.67;;
31618;SDS011;18230;51.502;7.108;2024-03-25T15:19:47;7.90;;;2.05;;
31618;SDS011;18230;51.502;7.108;2024-03-25T15:24:48;5.38;;;1.75;;
31618;SDS011;18230;51.502;7.108;2024-03-25T15:29:49;8.15;;;2.42;;
31618;SDS011;18230;51.502;7.108;2024-03-25T15:34:51;9.32;;;1.85;;
31618;SDS011;18230;51.502;7.108;2024-03-25T15:39:53;9.95;;;2.00;;
31618;SDS011;18230;51.502;7.108;2024-03-25T15:44:56;11.88;;;2.42;;
31618;SDS011;18230;51.502;7.108;2024-03-25T15:49:56;6.95;;;2.13;;
31618;SDS011;18230;51.502;7.108;2024-03-25T15:54:57;8.32;;;2.17;;
31618;SDS011;18230;51.502;7.108;2024-03-25T15:59:58;9.05;;;1.92;;
31618;SDS011;18230;51.502;7.108;2024-03-25T16:04:59;8.13;;;1.80;;
31618;SDS011;18230;51.502;7.108;2024-03-25T16:09:59;8.70;;;2.13;;
31618;SDS011;18230;51.502;7.108;2024-03-25T16:15:00;7.72;;;1.75;;
31618;SDS011;18230;51.502;7.108;2024-03-25T16:20:01;9.13;;;1.80;;
31618;SDS011;18230;51.502;7.108;2024-03-25T16:25:02;7.53;;;1.83;;
31618;SDS011;18230;51.502;7.108;2024-03-25T16:30:04;11.00;;;1.65;;
31618;SDS011;18230;51.502;7.108;2024-03-25T16:35:05;9.95;;;2.25;;
31618;SDS011;18230;51.502;7.108;2024-03-25T16:40:06;7.85;;;2.00;;
31618;SDS011;18230;51.502;7.108;2024-03-25T16:45:07;7.18;;;2.22;;
31618;SDS011;18230;51.502;7.108;2024-03-25T16:50:08;8.35;;;1.70;;
31618;SDS011;18230;51.502;7.108;2024-03-25T16:55:09;9.43;;;2.65;;
31618;SDS011;18230;51.502;7.108;2024-03-25T17:00:10;8.30;;;1.98;;
31618;SDS011;18230;51.502;7.108;2024-03-25T17:05:12;8.18;;;2.00;;
31618;SDS011;18230;51.502;7.108;2024-03-25T17:10:13;6.32;;;1.88;;
31618;SDS011;18230;51.502;7.108;2024-03-25T17:15:14;7.75;;;1.95;;
31618;SDS011;18230;51.502;7.108;2024-03-25T17:20:15;9.70;;;3.60;;
31618;SDS011;18230;51.502;7.108;2024-03-25T17:25:15;13.73;;;6.20;;
31618;SDS011;18230;51.502;7.108;2024-03-25T17:30:16;12.90;;;2.63;;
31618;SDS011;18230;51.502;7.108;2024-03-25T17:35:17;12.88;;;4.35;;
31618;SDS011;18230;51.502;7.108;2024-03-25T17:40:17;14.70;;;5.70;;
31618;SDS011;18230;51.502;7.108;2024-03-25T17:45:18;15.15;;;4.90;;
31618;SDS011;18230;51.502;7.108;2024-03-25T17:50:20;18.20;;;8.45;;
31618;SDS011;18230;51.502;7.108;2024-03-25T17:55:21;16.48;;;5.80;;
31618;SDS011;18230;51.502;7.108;2024-03-25T18:00:21;29.23;;;10.35;;
31618;SDS011;18230;51.502;7.108;2024-03-25T18:05:22;11.30;;;4.55;;
31618;SDS011;18230;51.502;7.108;2024-03-25T18:10:22;10.43;;;3.65;;
31618;SDS011;18230;51.502;7.108;2024-03-25T18:15:23;9.57;;;3.10;;
31618;SDS011;18230;51.502;7.108;2024-03-25T18:20:24;12.10;;;3.50;;
31618;SDS011;18230;51.502;7.108;2024-03-25T18:25:24;9.30;;;2.40;;
31618;SDS011;18230;51.502;7.108;2024-03-25T18:30:25;11.90;;;2.45;;
31618;SDS011;18230;51.502;7.108;2024-03-25T18:35:25;11.82;;;2.80;;
31618;SDS011;18230;51.502;7.108;2024-03-25T18:40:26;12.20;;;3.10;;
31618;SDS011;18230;51.502;7.108;2024-03-25T18:45:27;10.32;;;2.95;;
31618;SDS011;18230;51.502;7.108;2024-03-25T18:50:27;13.52;;;3.30;;
31618;SDS011;18230;51.502;7.108;2024-03-25T18:55:28;12.13;;;2.70;;
31618;SDS011;18230;51.502;7.108;2024-03-25T19:00:29;13.48;;;2.70;;
31618;SDS011;18230;51.502;7.108;2024-03-25T19:05:29;17.08;;;3.47;;
31618;SDS011;18230;51.502;7.108;2024-03-25T19:10:30;21.23;;;3.47;;
31618;SDS011;18230;51.502;7.108;2024-03-25T19:15:31;18.70;;;3.38;;
31618;SDS011;18230;51.502;7.108;2024-03-25T19:20:31;17.73;;;3.75;;
31618;SDS011;18230;51.502;7.108;2024-03-25T19:25:32;14.48;;;3.58;;
31618;SDS011;18230;51.502;7.108;2024-03-25T19:30:33;12.82;;;4.30;;
31618;SDS011;18230;51.502;7.108;2024-03-25T19:35:33;19.88;;;4.28;;
31618;SDS011;18230;51.502;7.108;2024-03-25T19:40:34;14.20;;;4.28;;
31618;SDS011;18230;51.502;7.108;2024-03-25T19:45:35;13.90;;;3.72;;
31618;SDS011;18230;51.502;7.108;2024-03-25T19:50:36;11.57;;;3.10;;
31618;SDS011;18230;51.502;7.108;2024-03-25T19:55:36;17.00;;;3.85;;
31618;SDS011;18230;51.502;7.108;2024-03-25T20:00:37;17.60;;;3.55;;
31618;SDS011;18230;51.502;7.108;2024-03-25T20:05:38;18.25;;;3.95;;
31618;SDS011;18230;51.502;7.108;2024-03-25T20:10:39;18.92;;;4.28;;
31618;SDS011;18230;51.502;7.108;2024-03-25T20:15:39;16.27;;;3.33;;
31618;SDS011;18230;51.502;7.108;2024-03-25T20:20:42;18.02;;;3.85;;
31618;SDS011;18230;51.502;7.108;2024-03-25T20:25:43;13.80;;;3.63;;
31618;SDS011;18230;51.502;7.108;2024-03-25T20:30:45;12.57;;;3.47;;
31618;SDS011;18230;51.502;7.108;2024-03-25T20:35:46;13.10;;;3.50;;
31618;SDS011;18230;51.502;7.108;2024-03-25T20:40:47;19.30;;;3.72;;
31618;SDS011;18230;51.502;7.108;2024-03-25T20:45:47;15.18;;;3.75;;
31618;SDS011;18230;51.502;7.108;2024-03-25T20:50:48;18.13;;;3.75;;
31618;SDS011;18230;51.502;7.108;2024-03-25T20:55:49;16.50;;;3.88;;
31618;SDS011;18230;51.502;7.108;2024-03-25T21:00:50;19.88;;;4.47;;
31618;SDS011;18230;51.502;7.108;2024-03-25T21:05:54;19.88;;;3.70;;
31618;SDS011;18230;51.502;7.108;2024-03-25T21:10:55;16.35;;;3.30;;
31618;SDS011;18230;51.502;7.108;2024-03-25T21:15:56;12.13;;;3.83;;
31618;SDS011;18230;51.502;7.108;2024-03-25T21:20:57;13.23;;;4.00;;
31618;SDS011;18230;51.502;7.108;2024-03-25T21:25:58;17.30;;;3.78;;
31618;SDS011;18230;51.502;7.108;2024-03-25T21:30:59;21.92;;;4.60;;
31618;SDS011;18230;51.502;7.108;2024-03-25T21:36:00;13.07;;;4.05;;
31618;SDS011;18230;51.502;7.108;2024-03-25T21:41:00;13.10;;;4.40;;
31618;SDS011;18230;51.502;7.108;2024-03-25T21:46:01;19.05;;;4.30;;
31618;SDS011;18230;51.502;7.108;2024-03-25T21:51:02;11.50;;;3.78;;
31618;SDS011;18230;51.502;7.108;2024-03-25T21:56:03;14.60;;;3.45;;
31618;SDS011;18230;51.502;7.108;2024-03-25T22:01:04;13.82;;;3.80;;
31618;SDS011;18230;51.502;7.108;2024-03-25T22:06:05;14.55;;;3.72;;
31618;SDS011;18230;51.502;7.108;2024-03-25T22:11:05;13.35;;;3.63;;
31618;SDS011;18230;51.502;7.108;2024-03-25T22:16:06;10.73;;;3.30;;
31618;SDS011;18230;51.502;7.108;2024-03-25T22:21:07;10.55;;;3.17;;
31618;SDS011;18230;51.502;7.108;2024-03-25T22:26:07;14.20;;;2.97;;
31618;SDS011;18230;51.502;7.108;2024-03-25T22:31:08;11.43;;;3.22;;
31618;SDS011;18230;51.502;7.108;2024-03-25T22:36:08;14.45;;;3.42;;
31618;SDS011;18230;51.502;7.108;2024-03-25T22:41:09;12.50;;;2.83;;
31618;SDS011;18230;51.502;7.108;2024-03-25T22:46:10;13.52;;;3.10;;
31618;SDS011;18230;51.502;7.108;2024-03-25T22:51:10;13.00;;;3.35;;
31618;SDS011;18230;51.502;7.108;2024-03-25T22:56:12;13.82;;;2.97;;
31618;SDS011;18230;51.502;7.108;2024-03-25T23:01:13;12.18;;;3.15;;
31618;SDS011;18230;51.502;7.108;2024-03-25T23:06:13;18.83;;;3.70;;
31618;SDS011;18230;51.502;7.108;2024-03-25T23:11:14;13.05;;;2.78;;
31618;SDS011;18230;51.502;7.108;2024-03-25T23:16:15;9.98;;;3.00;;
31618;SDS011;18230;51.502;7.108;2024-03-25T23:21:15;12.30;;;2.97;;
31618;SDS011;18230;51.502;7.108;2024-03-25T23:26:16;11.23;;;2.97;;
31618;SDS011;18230;51.502;7.108;2024-03-25T23:31:16;19.80;;;2.95;;
31618;SDS011;18230;51.502;7.108;2024-03-25T23:36:17;14.20;;;3.05;;
31618;SDS011;18230;51.502;7.108;2024-03-25T23:41:18;11.27;;;3.65;;
31618;SDS011;18230;51.502;7.108;2024-03-25T23:46:18;16.17;;;3.33;;
31618;SDS011;18230;51.502;7.108;2024-03-25T23:51:21;14.02;;;3.03;;
31618;SDS011;18230;51.502;7.108;2024-03-25T23:56:22;14.05;;;2.88;;
